Madrid, NY (13660)

9:44 AM EDT on August 21, 2014 (GMT -0400)
West Potsdam | Change Station
CLOSE
Current Station
Personal Weather Station
Location: Potsdam, NY
Elevation: 364 ft
Nearby Weather Stations

Elev 364 ft 44.69 °N, 75.08 °W | Updated 4 minutes ago

Mostly Cloudy
Mostly Cloudy
71.2 °F
Feels Like 71.2 °F
N
0.0
Wind Variable Wind from ENE
Gusts 3.0 mph

Today
High -- | Low -- °F
--% Chance of Precip.
Yesterday
High -- | Low -- °F
Precip. -- in
6:09 AM 7:56 PM
Waning Crescent, 14% visible
Pressure 30.00 in
Visibility 10.0 miles
Clouds Mostly Cloudy 8000 ft
Dew Point 69 °F
Humidity 93%
Rainfall 0.05 in
Snow Depth Not available.
UV 1.0 out of 12
Pollen 2.20 out of 12
Air Quality Not available.
Flu Activity Not available.
METAR KMSS 211253Z AUTO 07005KT 10SM BKN080 21/19 A3000 RMK AO2 SLP158 T02060194

More Conditions Fewer Conditions

Pressure 30.00 in
Visibility 10.0 miles
Clouds Mostly Cloudy 8000 ft
Dew Point 69 °F
Humidity 93%
Rainfall 0.05 in
Snow Depth Not available.
UV 1.0 out of 12
Pollen 2.20 out of 12
Air Quality Not available.
Flu Activity Not available.
METAR KMSS 211253Z AUTO 07005KT 10SM BKN080 21/19 A3000 RMK AO2 SLP158 T02060194

More Conditions Fewer Conditions

10-Day Weather Forecast

Almanac

Astronomy

Aug. 21, 2014 Rise Set
Actual Time 6:09 AM EDT 7:56 PM EDT
Civil Twilight 5:38 AM EDT 8:27 PM EDT
Nautical Twilight 5:00 AM EDT 9:05 PM EDT
Astronomical Twilight 4:19 AM EDT 9:46 PM EDT
Moon 2:33 AM EDT 5:27 PM EDT
Length of Visible Light 14h 48m
Length of Day
13h 46m
Tomorrow will be 2m 52s shorter.
Waning Crescent, 14% of the Moon is Illuminated
Today
Waning Crescent
Aug 25
New
Sep 2
First Quarter
Sep 8
Full
Sep 15
Last Quarter

Today's Extremes

State Highs State Lows

Community

WunderPhotos

Upload Photos

1,745,918 photos uploaded!

WunderBlogs® & News

Nearby

Air Quality

  Air Quality AQ Index Pollutant
Thursday Good
PM2.5
Thursday Good
OZONE

Snow Depth

Station Depth Elevation
No new snow has been reported.

Earthquake Activity

City Distance Mag. Time & Date
No recent earthquake activity has been reported nearby.
Minimum magnitude displayed is 2.5.

Coastal Water Temperatures

Place Temperature
Ogdensburg, NY 64.9 °F
Alexandria Bay, NY 68.0 °F

Nearby Weather Stations